sensor_id;sensor_type;location;lat;lon;timestamp;temperature;humidity
24085;DHT22;12268;52.110;5.548;2022-07-10T04:14:09;18.40;99.90
24085;DHT22;12268;52.110;5.548;2022-07-10T04:16:35;18.50;99.90
24085;DHT22;12268;52.110;5.548;2022-07-10T04:19:00;18.70;99.90
24085;DHT22;12268;52.110;5.548;2022-07-10T04:21:26;18.80;99.90
24085;DHT22;12268;52.110;5.548;2022-07-10T04:23:51;18.80;99.90
24085;DHT22;12268;52.110;5.548;2022-07-10T04:26:17;18.90;99.90
24085;DHT22;12268;52.110;5.548;2022-07-10T04:28:42;18.90;99.90
24085;DHT22;12268;52.110;5.548;2022-07-10T04:31:08;18.90;99.90
24085;DHT22;12268;52.110;5.548;2022-07-10T04:33:33;19.00;99.90
24085;DHT22;12268;52.110;5.548;2022-07-10T04:35:59;18.80;99.90
24085;DHT22;12268;52.110;5.548;2022-07-10T04:38:25;19.10;99.90
24085;DHT22;12268;52.110;5.548;2022-07-10T04:40:50;19.20;99.90
24085;DHT22;12268;52.110;5.548;2022-07-10T04:43:16;19.30;99.90
24085;DHT22;12268;52.110;5.548;2022-07-10T04:45:41;19.50;99.90
24085;DHT22;12268;52.110;5.548;2022-07-10T04:48:07;19.50;99.90
24085;DHT22;12268;52.110;5.548;2022-07-10T04:50:32;19.60;99.90
24085;DHT22;12268;52.110;5.548;2022-07-10T04:52:58;19.60;99.90
24085;DHT22;12268;52.110;5.548;2022-07-10T04:55:23;19.70;99.90
24085;DHT22;12268;52.110;5.548;2022-07-10T04:57:49;19.80;99.90
24085;DHT22;12268;52.110;5.548;2022-07-10T05:00:15;19.80;99.90
24085;DHT22;12268;52.110;5.548;2022-07-10T05:02:41;19.70;99.90
24085;DHT22;12268;52.110;5.548;2022-07-10T05:05:07;19.80;99.90
24085;DHT22;12268;52.110;5.548;2022-07-10T05:07:33;19.80;99.90
24085;DHT22;12268;52.110;5.548;2022-07-10T05:09:59;19.70;99.90
24085;DHT22;12268;52.110;5.548;2022-07-10T05:12:25;19.90;99.90
24085;DHT22;12268;52.110;5.548;2022-07-10T05:14:50;19.70;99.90
24085;DHT22;12268;52.110;5.548;2022-07-10T05:17:16;19.60;99.90
24085;DHT22;12268;52.110;5.548;2022-07-10T05:19:41;19.60;99.90
24085;DHT22;12268;52.110;5.548;2022-07-10T05:22:07;19.80;99.90
24085;DHT22;12268;52.110;5.548;2022-07-10T05:24:34;20.10;99.90
24085;DHT22;12268;52.110;5.548;2022-07-10T05:27:00;19.90;99.90
24085;DHT22;12268;52.110;5.548;2022-07-10T05:29:25;19.80;99.90
24085;DHT22;12268;52.110;5.548;2022-07-10T05:31:51;19.80;99.90
24085;DHT22;12268;52.110;5.548;2022-07-10T05:34:17;19.80;99.90
24085;DHT22;12268;52.110;5.548;2022-07-10T05:36:42;20.00;99.90
24085;DHT22;12268;52.110;5.548;2022-07-10T05:39:08;20.10;99.90
24085;DHT22;12268;52.110;5.548;2022-07-10T05:41:33;20.30;99.90
24085;DHT22;12268;52.110;5.548;2022-07-10T05:43:59;20.20;99.90
24085;DHT22;12268;52.110;5.548;2022-07-10T05:46:25;20.00;99.90
24085;DHT22;12268;52.110;5.548;2022-07-10T05:48:51;19.90;99.90
24085;DHT22;12268;52.110;5.548;2022-07-10T05:51:17;19.90;99.90
24085;DHT22;12268;52.110;5.548;2022-07-10T05:53:42;19.60;99.90
24085;DHT22;12268;52.110;5.548;2022-07-10T05:56:08;19.60;99.90
24085;DHT22;12268;52.110;5.548;2022-07-10T05:58:34;19.60;99.90
24085;DHT22;12268;52.110;5.548;2022-07-10T06:00:59;19.70;99.90
24085;DHT22;12268;52.110;5.548;2022-07-10T06:03:25;19.70;99.90
24085;DHT22;12268;52.110;5.548;2022-07-10T06:05:51;19.70;99.90
24085;DHT22;12268;52.110;5.548;2022-07-10T06:08:18;19.40;99.90
24085;DHT22;12268;52.110;5.548;2022-07-10T06:10:44;19.40;99.90
24085;DHT22;12268;52.110;5.548;2022-07-10T06:13:10;19.50;99.90
24085;DHT22;12268;52.110;5.548;2022-07-10T06:15:36;19.50;99.90
24085;DHT22;12268;52.110;5.548;2022-07-10T06:18:02;19.20;99.90
24085;DHT22;12268;52.110;5.548;2022-07-10T06:20:28;19.10;99.90
24085;DHT22;12268;52.110;5.548;2022-07-10T06:22:53;19.10;99.90
24085;DHT22;12268;52.110;5.548;2022-07-10T06:25:19;19.20;99.90
24085;DHT22;12268;52.110;5.548;2022-07-10T06:27:45;19.30;99.90
24085;DHT22;12268;52.110;5.548;2022-07-10T06:30:10;19.50;99.90
24085;DHT22;12268;52.110;5.548;2022-07-10T06:32:36;19.60;99.90
24085;DHT22;12268;52.110;5.548;2022-07-10T06:35:02;19.80;99.90
24085;DHT22;12268;52.110;5.548;2022-07-10T06:37:30;19.60;99.90
24085;DHT22;12268;52.110;5.548;2022-07-10T06:39:55;19.60;99.90
24085;DHT22;12268;52.110;5.548;2022-07-10T06:42:21;19.50;99.90
24085;DHT22;12268;52.110;5.548;2022-07-10T06:44:46;19.40;99.90
24085;DHT22;12268;52.110;5.548;2022-07-10T06:47:13;19.60;99.90
24085;DHT22;12268;52.110;5.548;2022-07-10T06:49:58;19.70;99.90
24085;DHT22;12268;52.110;5.548;2022-07-10T06:52:24;20.00;99.90
24085;DHT22;12268;52.110;5.548;2022-07-10T06:54:50;20.20;99.90
24085;DHT22;12268;52.110;5.548;2022-07-10T06:57:15;20.20;99.90
24085;DHT22;12268;52.110;5.548;2022-07-10T06:59:43;20.10;99.90
24085;DHT22;12268;52.110;5.548;2022-07-10T07:02:08;19.90;99.90
24085;DHT22;12268;52.110;5.548;2022-07-10T07:04:34;19.70;99.90
24085;DHT22;12268;52.110;5.548;2022-07-10T07:07:00;19.50;99.90
24085;DHT22;12268;52.110;5.548;2022-07-10T07:09:26;19.40;99.90
24085;DHT22;12268;52.110;5.548;2022-07-10T07:11:52;19.60;99.90
24085;DHT22;12268;52.110;5.548;2022-07-10T07:14:17;19.80;99.90
24085;DHT22;12268;52.110;5.548;2022-07-10T07:16:43;19.80;99.90
24085;DHT22;12268;52.110;5.548;2022-07-10T07:19:11;19.50;99.90
24085;DHT22;12268;52.110;5.548;2022-07-10T07:21:43;19.60;99.90
24085;DHT22;12268;52.110;5.548;2022-07-10T07:24:27;19.70;99.90
24085;DHT22;12268;52.110;5.548;2022-07-10T07:26:53;19.50;99.90
24085;DHT22;12268;52.110;5.548;2022-07-10T07:29:18;19.60;99.90
24085;DHT22;12268;52.110;5.548;2022-07-10T07:31:44;20.00;99.90
24085;DHT22;12268;52.110;5.548;2022-07-10T07:34:10;20.20;99.90
24085;DHT22;12268;52.110;5.548;2022-07-10T07:36:36;20.20;99.90
24085;DHT22;12268;52.110;5.548;2022-07-10T07:39:03;20.30;99.90
24085;DHT22;12268;52.110;5.548;2022-07-10T07:41:28;20.20;99.90
24085;DHT22;12268;52.110;5.548;2022-07-10T07:43:54;20.10;99.90
24085;DHT22;12268;52.110;5.548;2022-07-10T07:46:20;20.20;99.90
24085;DHT22;12268;52.110;5.548;2022-07-10T07:48:45;20.20;99.90
24085;DHT22;12268;52.110;5.548;2022-07-10T07:51:11;20.10;99.90
24085;DHT22;12268;52.110;5.548;2022-07-10T07:53:37;20.10;99.90
24085;DHT22;12268;52.110;5.548;2022-07-10T07:56:03;20.40;99.90
24085;DHT22;12268;52.110;5.548;2022-07-10T07:58:28;20.50;99.90
24085;DHT22;12268;52.110;5.548;2022-07-10T08:00:55;20.80;99.90
24085;DHT22;12268;52.110;5.548;2022-07-10T08:03:22;20.70;99.90
24085;DHT22;12268;52.110;5.548;2022-07-10T08:05:47;20.60;99.90
24085;DHT22;12268;52.110;5.548;2022-07-10T08:08:13;20.30;99.90
24085;DHT22;12268;52.110;5.548;2022-07-10T08:10:39;20.60;99.90
24085;DHT22;12268;52.110;5.548;2022-07-10T08:13:04;20.60;99.90
24085;DHT22;12268;52.110;5.548;2022-07-10T08:15:30;20.40;99.90
24085;DHT22;12268;52.110;5.548;2022-07-10T08:17:57;20.70;99.90
24085;DHT22;12268;52.110;5.548;2022-07-10T08:20:25;20.90;99.90
24085;DHT22;12268;52.110;5.548;2022-07-10T08:22:51;21.00;99.90
24085;DHT22;12268;52.110;5.548;2022-07-10T08:25:19;20.90;99.90
24085;DHT22;12268;52.110;5.548;2022-07-10T08:27:45;20.80;99.90
24085;DHT22;12268;52.110;5.548;2022-07-10T08:30:11;21.00;99.90
24085;DHT22;12268;52.110;5.548;2022-07-10T08:32:37;21.40;99.90
24085;DHT22;12268;52.110;5.548;2022-07-10T08:35:04;21.80;99.90
24085;DHT22;12268;52.110;5.548;2022-07-10T08:37:29;22.10;99.90
24085;DHT22;12268;52.110;5.548;2022-07-10T08:39:55;22.10;99.90
24085;DHT22;12268;52.110;5.548;2022-07-10T08:42:21;22.10;99.90
24085;DHT22;12268;52.110;5.548;2022-07-10T08:44:48;22.10;99.90
24085;DHT22;12268;52.110;5.548;2022-07-10T08:47:13;22.00;99.90
24085;DHT22;12268;52.110;5.548;2022-07-10T08:49:46;22.30;99.90
24085;DHT22;12268;52.110;5.548;2022-07-10T08:52:45;22.40;99.90
24085;DHT22;12268;52.110;5.548;2022-07-10T08:55:20;22.00;99.90
24085;DHT22;12268;52.110;5.548;2022-07-10T08:57:47;22.00;99.90
24085;DHT22;12268;52.110;5.548;2022-07-10T09:00:14;21.90;99.90
24085;DHT22;12268;52.110;5.548;2022-07-10T09:02:39;21.90;99.90
24085;DHT22;12268;52.110;5.548;2022-07-10T09:05:05;21.50;99.90
24085;DHT22;12268;52.110;5.548;2022-07-10T09:07:37;21.70;99.90
24085;DHT22;12268;52.110;5.548;2022-07-10T09:10:10;22.30;99.90
24085;DHT22;12268;52.110;5.548;2022-07-10T09:13:00;22.60;99.90
24085;DHT22;12268;52.110;5.548;2022-07-10T09:15:29;22.60;99.90
24085;DHT22;12268;52.110;5.548;2022-07-10T09:17:59;22.70;99.90
24085;DHT22;12268;52.110;5.548;2022-07-10T09:20:34;22.70;99.90
24085;DHT22;12268;52.110;5.548;2022-07-10T09:23:16;23.00;99.90
24085;DHT22;12268;52.110;5.548;2022-07-10T09:25:43;23.20;99.90
24085;DHT22;12268;52.110;5.548;2022-07-10T09:28:09;23.60;99.90
24085;DHT22;12268;52.110;5.548;2022-07-10T09:30:37;23.50;99.90
24085;DHT22;12268;52.110;5.548;2022-07-10T09:36:10;22.50;99.90
24085;DHT22;12268;52.110;5.548;2022-07-10T09:44:01;23.00;99.90
24085;DHT22;12268;52.110;5.548;2022-07-10T09:46:35;22.90;99.90
24085;DHT22;12268;52.110;5.548;2022-07-10T09:49:06;23.40;99.90
24085;DHT22;12268;52.110;5.548;2022-07-10T09:51:37;24.10;99.90
24085;DHT22;12268;52.110;5.548;2022-07-10T09:54:05;24.60;99.90
24085;DHT22;12268;52.110;5.548;2022-07-10T09:56:54;24.80;99.90
24085;DHT22;12268;52.110;5.548;2022-07-10T09:59:21;24.90;99.90
24085;DHT22;12268;52.110;5.548;2022-07-10T10:01:51;24.60;99.90
24085;DHT22;12268;52.110;5.548;2022-07-10T10:04:19;24.90;99.90
24085;DHT22;12268;52.110;5.548;2022-07-10T10:06:53;25.10;99.90
24085;DHT22;12268;52.110;5.548;2022-07-10T10:09:24;25.20;99.90
24085;DHT22;12268;52.110;5.548;2022-07-10T10:11:57;25.60;99.90
24085;DHT22;12268;52.110;5.548;2022-07-10T10:14:24;25.80;99.90
24085;DHT22;12268;52.110;5.548;2022-07-10T10:16:55;27.40;99.90
24085;DHT22;12268;52.110;5.548;2022-07-10T10:19:23;29.10;99.90
24085;DHT22;12268;52.110;5.548;2022-07-10T10:22:08;30.70;99.90
24085;DHT22;12268;52.110;5.548;2022-07-10T10:24:34;30.30;99.90
24085;DHT22;12268;52.110;5.548;2022-07-10T10:27:04;29.40;99.90
24085;DHT22;12268;52.110;5.548;2022-07-10T10:29:31;28.90;99.90
24085;DHT22;12268;52.110;5.548;2022-07-10T10:31:57;28.00;99.90
24085;DHT22;12268;52.110;5.548;2022-07-10T10:34:41;27.50;99.90
24085;DHT22;12268;52.110;5.548;2022-07-10T11:49:44;25.00;99.90
24085;DHT22;12268;52.110;5.548;2022-07-10T11:52:10;25.00;99.90
24085;DHT22;12268;52.110;5.548;2022-07-10T11:54:36;25.40;99.90
24085;DHT22;12268;52.110;5.548;2022-07-10T11:57:07;25.90;99.90
24085;DHT22;12268;52.110;5.548;2022-07-10T11:59:33;25.80;99.90
24085;DHT22;12268;52.110;5.548;2022-07-10T12:01:59;25.70;99.90
24085;DHT22;12268;52.110;5.548;2022-07-10T12:04:28;25.80;99.90
24085;DHT22;12268;52.110;5.548;2022-07-10T12:06:54;25.80;99.90
24085;DHT22;12268;52.110;5.548;2022-07-10T12:09:22;25.80;99.90
24085;DHT22;12268;52.110;5.548;2022-07-10T12:12:05;26.20;99.90
24085;DHT22;12268;52.110;5.548;2022-07-10T12:14:32;26.50;99.90
24085;DHT22;12268;52.110;5.548;2022-07-10T12:16:59;26.70;99.90
24085;DHT22;12268;52.110;5.548;2022-07-10T12:19:30;26.70;99.90
24085;DHT22;12268;52.110;5.548;2022-07-10T12:21:58;26.50;99.90
24085;DHT22;12268;52.110;5.548;2022-07-10T12:24:25;26.70;99.90
24085;DHT22;12268;52.110;5.548;2022-07-10T12:26:52;26.80;99.90
24085;DHT22;12268;52.110;5.548;2022-07-10T12:31:43;26.30;99.90
24085;DHT22;12268;52.110;5.548;2022-07-10T12:34:10;25.80;99.90
24085;DHT22;12268;52.110;5.548;2022-07-10T12:36:51;25.70;99.90
24085;DHT22;12268;52.110;5.548;2022-07-10T12:39:21;25.60;99.90
24085;DHT22;12268;52.110;5.548;2022-07-10T12:44:45;25.80;99.90
24085;DHT22;12268;52.110;5.548;2022-07-10T12:47:18;25.70;99.90
24085;DHT22;12268;52.110;5.548;2022-07-10T12:50:04;26.00;99.90
24085;DHT22;12268;52.110;5.548;2022-07-10T12:52:34;26.10;99.90
24085;DHT22;12268;52.110;5.548;2022-07-10T12:57:56;25.90;99.90
24085;DHT22;12268;52.110;5.548;2022-07-10T13:00:23;26.20;99.90
24085;DHT22;12268;52.110;5.548;2022-07-10T13:02:50;27.40;99.90
24085;DHT22;12268;52.110;5.548;2022-07-10T13:05:38;28.50;99.90
24085;DHT22;12268;52.110;5.548;2022-07-10T13:08:15;28.90;99.90
24085;DHT22;12268;52.110;5.548;2022-07-10T13:10:50;29.40;99.90
24085;DHT22;12268;52.110;5.548;2022-07-10T13:13:16;30.90;99.90
24085;DHT22;12268;52.110;5.548;2022-07-10T13:15:43;31.60;99.30
24085;DHT22;12268;52.110;5.548;2022-07-10T13:18:16;32.40;95.90
24085;DHT22;12268;52.110;5.548;2022-07-10T13:20:45;32.40;95.30
24085;DHT22;12268;52.110;5.548;2022-07-10T13:23:11;31.50;95.40
24085;DHT22;12268;52.110;5.548;2022-07-10T13:25:37;31.40;96.20
24085;DHT22;12268;52.110;5.548;2022-07-10T13:28:04;31.10;96.70
24085;DHT22;12268;52.110;5.548;2022-07-10T13:30:30;30.50;96.80
24085;DHT22;12268;52.110;5.548;2022-07-10T13:32:56;30.10;95.80
24085;DHT22;12268;52.110;5.548;2022-07-10T13:35:22;29.70;95.70
24085;DHT22;12268;52.110;5.548;2022-07-10T13:37:48;29.50;95.60
24085;DHT22;12268;52.110;5.548;2022-07-10T13:40:14;29.10;95.10
24085;DHT22;12268;52.110;5.548;2022-07-10T13:42:39;28.70;97.00
24085;DHT22;12268;52.110;5.548;2022-07-10T13:45:05;28.40;96.30
24085;DHT22;12268;52.110;5.548;2022-07-10T13:47:33;28.10;97.50
24085;DHT22;12268;52.110;5.548;2022-07-10T13:49:58;28.10;97.80
24085;DHT22;12268;52.110;5.548;2022-07-10T13:52:24;27.90;97.50
24085;DHT22;12268;52.110;5.548;2022-07-10T13:54:50;27.70;97.70
24085;DHT22;12268;52.110;5.548;2022-07-10T13:57:15;27.50;98.00
24085;DHT22;12268;52.110;5.548;2022-07-10T13:59:41;27.40;97.80
24085;DHT22;12268;52.110;5.548;2022-07-10T14:02:06;27.40;98.40
24085;DHT22;12268;52.110;5.548;2022-07-10T14:04:32;27.20;97.90
24085;DHT22;12268;52.110;5.548;2022-07-10T14:06:57;26.70;98.30
24085;DHT22;12268;52.110;5.548;2022-07-10T14:09:23;26.60;99.90
24085;DHT22;12268;52.110;5.548;2022-07-10T14:11:50;26.80;99.90
24085;DHT22;12268;52.110;5.548;2022-07-10T14:14:15;27.10;99.90
24085;DHT22;12268;52.110;5.548;2022-07-10T14:16:41;27.30;99.90
24085;DHT22;12268;52.110;5.548;2022-07-10T14:19:08;27.30;99.90
24085;DHT22;12268;52.110;5.548;2022-07-10T14:21:34;26.60;99.90
24085;DHT22;12268;52.110;5.548;2022-07-10T14:24:02;26.50;99.90
24085;DHT22;12268;52.110;5.548;2022-07-10T14:26:27;26.50;99.90
24085;DHT22;12268;52.110;5.548;2022-07-10T14:28:53;27.10;99.90
24085;DHT22;12268;52.110;5.548;2022-07-10T14:31:20;27.40;99.90
24085;DHT22;12268;52.110;5.548;2022-07-10T14:33:45;27.70;99.90
24085;DHT22;12268;52.110;5.548;2022-07-10T14:36:11;27.90;99.90
24085;DHT22;12268;52.110;5.548;2022-07-10T14:38:37;28.00;99.70
24085;DHT22;12268;52.110;5.548;2022-07-10T14:41:02;27.50;99.90
24085;DHT22;12268;52.110;5.548;2022-07-10T14:43:30;27.50;99.90
24085;DHT22;12268;52.110;5.548;2022-07-10T14:45:59;27.30;99.90
24085;DHT22;12268;52.110;5.548;2022-07-10T14:48:25;27.70;99.90
24085;DHT22;12268;52.110;5.548;2022-07-10T14:50:51;27.40;99.70
24085;DHT22;12268;52.110;5.548;2022-07-10T14:53:16;27.30;99.90
24085;DHT22;12268;52.110;5.548;2022-07-10T14:55:42;27.10;99.90
24085;DHT22;12268;52.110;5.548;2022-07-10T14:58:08;27.30;99.90
24085;DHT22;12268;52.110;5.548;2022-07-10T15:00:34;27.50;99.90
24085;DHT22;12268;52.110;5.548;2022-07-10T15:02:59;27.10;99.90
24085;DHT22;12268;52.110;5.548;2022-07-10T15:05:25;27.20;99.90
24085;DHT22;12268;52.110;5.548;2022-07-10T15:07:50;27.30;99.90
24085;DHT22;12268;52.110;5.548;2022-07-10T15:10:16;27.00;99.90
24085;DHT22;12268;52.110;5.548;2022-07-10T15:12:43;27.20;99.90
24085;DHT22;12268;52.110;5.548;2022-07-10T15:15:09;27.30;99.90
24085;DHT22;12268;52.110;5.548;2022-07-10T15:17:36;27.50;99.90
24085;DHT22;12268;52.110;5.548;2022-07-10T15:20:03;27.60;99.90
24085;DHT22;12268;52.110;5.548;2022-07-10T15:22:29;27.60;99.90
24085;DHT22;12268;52.110;5.548;2022-07-10T15:24:54;27.40;99.90
24085;DHT22;12268;52.110;5.548;2022-07-10T15:27:20;27.10;99.90
24085;DHT22;12268;52.110;5.548;2022-07-10T15:29:45;27.20;99.90
24085;DHT22;12268;52.110;5.548;2022-07-10T15:32:11;27.10;99.90
24085;DHT22;12268;52.110;5.548;2022-07-10T15:34:37;26.90;99.90
24085;DHT22;12268;52.110;5.548;2022-07-10T15:37:03;26.50;99.90
24085;DHT22;12268;52.110;5.548;2022-07-10T15:39:29;26.00;99.90
24085;DHT22;12268;52.110;5.548;2022-07-10T15:41:54;26.20;99.90
24085;DHT22;12268;52.110;5.548;2022-07-10T15:44:20;25.70;99.90
24085;DHT22;12268;52.110;5.548;2022-07-10T15:46:46;25.40;99.90
24085;DHT22;12268;52.110;5.548;2022-07-10T15:49:11;25.50;99.90
24085;DHT22;12268;52.110;5.548;2022-07-10T15:51:37;25.70;99.90
24085;DHT22;12268;52.110;5.548;2022-07-10T15:54:03;26.00;99.90
24085;DHT22;12268;52.110;5.548;2022-07-10T15:56:28;26.20;99.90
24085;DHT22;12268;52.110;5.548;2022-07-10T15:58:54;26.30;99.90
24085;DHT22;12268;52.110;5.548;2022-07-10T16:01:19;26.10;99.90
24085;DHT22;12268;52.110;5.548;2022-07-10T16:03:45;25.70;99.90
24085;DHT22;12268;52.110;5.548;2022-07-10T16:06:11;26.00;99.90
24085;DHT22;12268;52.110;5.548;2022-07-10T16:08:38;25.80;99.90
24085;DHT22;12268;52.110;5.548;2022-07-10T16:11:04;25.50;99.90
24085;DHT22;12268;52.110;5.548;2022-07-10T16:13:29;25.50;99.90
24085;DHT22;12268;52.110;5.548;2022-07-10T16:15:56;25.60;99.90
24085;DHT22;12268;52.110;5.548;2022-07-10T16:18:22;25.70;99.90
24085;DHT22;12268;52.110;5.548;2022-07-10T16:20:48;26.20;99.90
24085;DHT22;12268;52.110;5.548;2022-07-10T16:23:14;26.40;99.90
24085;DHT22;12268;52.110;5.548;2022-07-10T16:25:40;26.40;99.90
24085;DHT22;12268;52.110;5.548;2022-07-10T16:28:24;26.70;99.90
24085;DHT22;12268;52.110;5.548;2022-07-10T16:30:50;26.40;99.90
24085;DHT22;12268;52.110;5.548;2022-07-10T16:33:15;26.30;99.90
24085;DHT22;12268;52.110;5.548;2022-07-10T16:35:41;26.70;99.90
24085;DHT22;12268;52.110;5.548;2022-07-10T16:38:07;26.80;99.90
24085;DHT22;12268;52.110;5.548;2022-07-10T16:40:32;26.50;99.90
24085;DHT22;12268;52.110;5.548;2022-07-10T16:42:58;26.30;99.90
24085;DHT22;12268;52.110;5.548;2022-07-10T16:45:24;26.30;99.90
24085;DHT22;12268;52.110;5.548;2022-07-10T16:47:50;26.20;99.90
24085;DHT22;12268;52.110;5.548;2022-07-10T16:50:16;26.10;99.90
24085;DHT22;12268;52.110;5.548;2022-07-10T16:52:41;26.00;99.90
24085;DHT22;12268;52.110;5.548;2022-07-10T16:55:10;25.80;99.90
24085;DHT22;12268;52.110;5.548;2022-07-10T16:57:36;25.60;99.90
24085;DHT22;12268;52.110;5.548;2022-07-10T17:00:03;25.40;99.90
24085;DHT22;12268;52.110;5.548;2022-07-10T17:02:29;25.30;99.90
24085;DHT22;12268;52.110;5.548;2022-07-10T17:04:54;25.40;99.90
24085;DHT22;12268;52.110;5.548;2022-07-10T17:07:20;25.50;99.90
24085;DHT22;12268;52.110;5.548;2022-07-10T17:09:46;25.60;99.90
24085;DHT22;12268;52.110;5.548;2022-07-10T17:12:11;25.40;99.90
24085;DHT22;12268;52.110;5.548;2022-07-10T17:14:37;25.70;99.90
24085;DHT22;12268;52.110;5.548;2022-07-10T17:17:02;25.80;99.90
24085;DHT22;12268;52.110;5.548;2022-07-10T17:19:29;25.80;99.90
24085;DHT22;12268;52.110;5.548;2022-07-10T17:21:54;26.00;99.90
24085;DHT22;12268;52.110;5.548;2022-07-10T17:24:20;25.90;99.90
24085;DHT22;12268;52.110;5.548;2022-07-10T17:26:46;25.90;99.90
24085;DHT22;12268;52.110;5.548;2022-07-10T17:29:12;25.90;99.90
24085;DHT22;12268;52.110;5.548;2022-07-10T17:31:37;25.80;99.90
24085;DHT22;12268;52.110;5.548;2022-07-10T17:34:03;25.70;99.90
24085;DHT22;12268;52.110;5.548;2022-07-10T17:36:29;25.10;99.90
24085;DHT22;12268;52.110;5.548;2022-07-10T17:38:55;25.10;99.90
24085;DHT22;12268;52.110;5.548;2022-07-10T17:41:20;25.20;99.90
24085;DHT22;12268;52.110;5.548;2022-07-10T17:43:46;24.90;99.90
24085;DHT22;12268;52.110;5.548;2022-07-10T17:46:11;24.80;99.90
24085;DHT22;12268;52.110;5.548;2022-07-10T17:48:38;24.80;99.90
24085;DHT22;12268;52.110;5.548;2022-07-10T17:51:03;24.40;99.90
24085;DHT22;12268;52.110;5.548;2022-07-10T17:53:29;23.80;99.90
24085;DHT22;12268;52.110;5.548;2022-07-10T17:55:55;23.70;99.90
24085;DHT22;12268;52.110;5.548;2022-07-10T17:58:20;24.00;99.90
24085;DHT22;12268;52.110;5.548;2022-07-10T18:00:46;24.00;99.90
24085;DHT22;12268;52.110;5.548;2022-07-10T18:03:11;24.00;99.90
24085;DHT22;12268;52.110;5.548;2022-07-10T18:05:37;24.10;99.90
24085;DHT22;12268;52.110;5.548;2022-07-10T18:08:04;24.30;99.90
24085;DHT22;12268;52.110;5.548;2022-07-10T18:20:52;24.20;99.90
24085;DHT22;12268;52.110;5.548;2022-07-10T18:23:18;24.10;99.90
24085;DHT22;12268;52.110;5.548;2022-07-10T18:25:43;24.00;99.90
24085;DHT22;12268;52.110;5.548;2022-07-10T18:28:09;23.90;99.90
24085;DHT22;12268;52.110;5.548;2022-07-10T18:30:35;23.70;99.90
24085;DHT22;12268;52.110;5.548;2022-07-10T18:33:01;23.80;99.90
24085;DHT22;12268;52.110;5.548;2022-07-10T18:35:45;24.00;99.90
24085;DHT22;12268;52.110;5.548;2022-07-10T18:38:10;23.90;99.90
24085;DHT22;12268;52.110;5.548;2022-07-10T18:40:37;24.00;99.90
24085;DHT22;12268;52.110;5.548;2022-07-10T18:43:03;23.90;99.90
24085;DHT22;12268;52.110;5.548;2022-07-10T18:45:29;24.10;99.90
24085;DHT22;12268;52.110;5.548;2022-07-10T18:47:54;24.10;99.90
24085;DHT22;12268;52.110;5.548;2022-07-10T18:50:20;24.00;99.90
24085;DHT22;12268;52.110;5.548;2022-07-10T18:52:45;24.00;99.90
24085;DHT22;12268;52.110;5.548;2022-07-10T18:55:11;23.90;99.90
24085;DHT22;12268;52.110;5.548;2022-07-10T18:57:37;24.00;99.90
24085;DHT22;12268;52.110;5.548;2022-07-10T19:00:03;23.90;99.90
24085;DHT22;12268;52.110;5.548;2022-07-10T19:02:29;23.80;99.90
24085;DHT22;12268;52.110;5.548;2022-07-10T19:04:56;23.60;99.90
24085;DHT22;12268;52.110;5.548;2022-07-10T19:07:22;23.50;99.90
24085;DHT22;12268;52.110;5.548;2022-07-10T19:09:47;23.40;99.90
24085;DHT22;12268;52.110;5.548;2022-07-10T19:12:13;23.50;99.90
24085;DHT22;12268;52.110;5.548;2022-07-10T19:14:38;23.20;99.90
24085;DHT22;12268;52.110;5.548;2022-07-10T19:17:04;23.20;99.90
24085;DHT22;12268;52.110;5.548;2022-07-10T19:19:30;23.20;99.90
24085;DHT22;12268;52.110;5.548;2022-07-10T19:21:55;23.20;99.90
24085;DHT22;12268;52.110;5.548;2022-07-10T19:24:21;23.10;99.90
24085;DHT22;12268;52.110;5.548;2022-07-10T19:26:49;23.00;99.90
24085;DHT22;12268;52.110;5.548;2022-07-10T19:29:15;22.80;99.90
24085;DHT22;12268;52.110;5.548;2022-07-10T19:31:41;22.90;99.90
24085;DHT22;12268;52.110;5.548;2022-07-10T19:34:06;23.00;99.90
24085;DHT22;12268;52.110;5.548;2022-07-10T19:36:32;22.80;99.90
24085;DHT22;12268;52.110;5.548;2022-07-10T19:38:58;22.80;99.90
24085;DHT22;12268;52.110;5.548;2022-07-10T19:41:23;22.80;99.90
24085;DHT22;12268;52.110;5.548;2022-07-10T19:43:49;22.70;99.90
24085;DHT22;12268;52.110;5.548;2022-07-10T19:46:15;22.70;99.90
24085;DHT22;12268;52.110;5.548;2022-07-10T19:48:40;22.50;99.90
24085;DHT22;12268;52.110;5.548;2022-07-10T19:51:12;22.30;99.90
24085;DHT22;12268;52.110;5.548;2022-07-10T19:53:38;22.10;99.90
24085;DHT22;12268;52.110;5.548;2022-07-10T19:56:04;21.80;99.90
24085;DHT22;12268;52.110;5.548;2022-07-10T19:58:29;21.70;99.90
24085;DHT22;12268;52.110;5.548;2022-07-10T20:00:55;21.80;99.90
24085;DHT22;12268;52.110;5.548;2022-07-10T20:03:20;21.80;99.90
24085;DHT22;12268;52.110;5.548;2022-07-10T20:05:46;21.80;99.90
24085;DHT22;12268;52.110;5.548;2022-07-10T20:08:11;21.70;99.90
24085;DHT22;12268;52.110;5.548;2022-07-10T20:10:37;21.70;99.90
24085;DHT22;12268;52.110;5.548;2022-07-10T20:13:02;21.60;99.90
24085;DHT22;12268;52.110;5.548;2022-07-10T20:15:28;21.70;99.90
24085;DHT22;12268;52.110;5.548;2022-07-10T20:17:53;21.60;99.90
24085;DHT22;12268;52.110;5.548;2022-07-10T20:20:19;21.70;99.90
24085;DHT22;12268;52.110;5.548;2022-07-10T20:22:45;21.50;99.90
24085;DHT22;12268;52.110;5.548;2022-07-10T20:25:11;21.60;99.90
24085;DHT22;12268;52.110;5.548;2022-07-10T20:27:37;21.50;99.90
24085;DHT22;12268;52.110;5.548;2022-07-10T20:30:07;21.60;99.90
24085;DHT22;12268;52.110;5.548;2022-07-10T20:32:33;21.70;99.90
24085;DHT22;12268;52.110;5.548;2022-07-10T20:34:58;21.70;99.90
24085;DHT22;12268;52.110;5.548;2022-07-10T20:37:24;21.60;99.90
24085;DHT22;12268;52.110;5.548;2022-07-10T20:40:15;21.60;99.90
24085;DHT22;12268;52.110;5.548;2022-07-10T20:42:42;21.60;99.90
24085;DHT22;12268;52.110;5.548;2022-07-10T20:45:08;21.70;99.90
24085;DHT22;12268;52.110;5.548;2022-07-10T20:47:36;21.60;99.90
24085;DHT22;12268;52.110;5.548;2022-07-10T20:50:02;21.50;99.90
24085;DHT22;12268;52.110;5.548;2022-07-10T20:52:28;21.50;99.90
24085;DHT22;12268;52.110;5.548;2022-07-10T20:54:54;21.40;99.90
24085;DHT22;12268;52.110;5.548;2022-07-10T20:57:20;21.40;99.90
24085;DHT22;12268;52.110;5.548;2022-07-10T20:59:45;21.40;99.90
24085;DHT22;12268;52.110;5.548;2022-07-10T21:02:11;21.40;99.90
24085;DHT22;12268;52.110;5.548;2022-07-10T21:04:37;21.30;99.90
24085;DHT22;12268;52.110;5.548;2022-07-10T21:07:02;21.20;99.90
24085;DHT22;12268;52.110;5.548;2022-07-10T21:09:28;21.20;99.90
24085;DHT22;12268;52.110;5.548;2022-07-10T21:11:54;21.10;99.90
24085;DHT22;12268;52.110;5.548;2022-07-10T21:14:19;21.10;99.90
24085;DHT22;12268;52.110;5.548;2022-07-10T21:16:45;21.20;99.90
24085;DHT22;12268;52.110;5.548;2022-07-10T21:19:10;21.10;99.90
24085;DHT22;12268;52.110;5.548;2022-07-10T21:21:36;21.00;99.90